To NAV CANADA Home Page Login to a new session Search on AWWS site Feedback and Comments Disclaimer Vers la page française équivalente Tips FAQ What's new on the site To the Forecasts and Observations / NOTAM section To "File a Flight Plan" website Publications and other links Update of the User's profile FIC Telephone Numbers My Weather Data Folder Route Weather Data Regional Weather Data Local Weather Data To the Forecasts and Observations / NOTAM section
Request Generated 09/27/2016 at 18:54:15 UTC . Weather information available at that time is displayed.

METAR/TAF

PAULATUK/PAULATUK (NORA ALIQATCHIALUK RUBEN)/NT    

METAR CYPC 271800Z 28018KT 15SM SCT008 OVC015 03/M00 A2990 RMK SC4SC4
1.2MM SLP126=
METAR CYPC 271700Z 29017KT 15SM BKN008 OVC016 02/M00 A2989 RMK SC5SC3
SLP123=
METAR CYPC 271600Z 29016KT 15SM BKN008 OVC015 02/00 A2988 RMK SC5SC3
SLP119=

TAF CYPC 271838Z 2719/2723 28018G28KT P6SM SCT008 OVC015 TEMPO
2719/2721 5SM -RA BR OVC008
FM272100 30018G28KT P6SM SCT010 BKN025 TEMPO 2721/2723 P6SM -RASN
BKN010 OVC025
RMK NXT FCST WILL BE ISSUED AT 281445Z=
Your time UTC time
Weather data provided by Environment Canada and NAV CANADA